sensor_id;sensor_type;location;lat;lon;timestamp;pressure;altitude;pressure_sealevel;temperature;humidity
57192;BME280;43052;52.588;13.396;2023-04-20T00:02:02;101662.69;;;6.15;80.88
57192;BME280;43052;52.588;13.396;2023-04-20T00:04:28;101668.75;;;6.15;80.62
57192;BME280;43052;52.588;13.396;2023-04-20T00:06:54;101675.50;;;6.08;80.67
57192;BME280;43052;52.588;13.396;2023-04-20T00:09:21;101674.53;;;6.05;80.90
57192;BME280;43052;52.588;13.396;2023-04-20T00:11:47;101661.53;;;6.05;81.11
57192;BME280;43052;52.588;13.396;2023-04-20T00:14:12;101660.00;;;6.11;81.07
57192;BME280;43052;52.588;13.396;2023-04-20T00:16:37;101647.28;;;6.22;80.80
57192;BME280;43052;52.588;13.396;2023-04-20T00:19:03;101646.41;;;6.20;80.73
57192;BME280;43052;52.588;13.396;2023-04-20T00:21:28;101645.59;;;6.23;80.79
57192;BME280;43052;52.588;13.396;2023-04-20T00:23:53;101651.59;;;6.20;80.91
57192;BME280;43052;52.588;13.396;2023-04-20T00:26:19;101657.53;;;6.16;80.86
57192;BME280;43052;52.588;13.396;2023-04-20T00:28:45;101651.53;;;6.19;80.64
57192;BME280;43052;52.588;13.396;2023-04-20T00:31:10;101645.50;;;6.20;80.55
57192;BME280;43052;52.588;13.396;2023-04-20T00:33:35;101653.44;;;6.26;80.59
57192;BME280;43052;52.588;13.396;2023-04-20T00:36:01;101642.19;;;6.25;80.66
57192;BME280;43052;52.588;13.396;2023-04-20T00:38:27;101657.03;;;6.30;80.76
57192;BME280;43052;52.588;13.396;2023-04-20T00:40:53;101643.19;;;6.31;80.59
57192;BME280;43052;52.588;13.396;2023-04-20T00:43:19;101647.59;;;6.33;80.59
57192;BME280;43052;52.588;13.396;2023-04-20T00:45:45;101658.88;;;6.35;80.43
57192;BME280;43052;52.588;13.396;2023-04-20T00:48:11;101658.06;;;6.36;80.36
57192;BME280;43052;52.588;13.396;2023-04-20T00:50:37;101647.66;;;6.36;80.53
57192;BME280;43052;52.588;13.396;2023-04-20T00:53:03;101648.69;;;6.41;80.44
57192;BME280;43052;52.588;13.396;2023-04-20T00:55:30;101650.56;;;6.47;80.59
57192;BME280;43052;52.588;13.396;2023-04-20T00:57:55;101647.19;;;6.51;80.27
57192;BME280;43052;52.588;13.396;2023-04-20T01:00:21;101644.34;;;6.42;80.17
57192;BME280;43052;52.588;13.396;2023-04-20T01:02:46;101644.44;;;6.45;80.24
57192;BME280;43052;52.588;13.396;2023-04-20T01:05:12;101640.91;;;6.43;80.05
57192;BME280;43052;52.588;13.396;2023-04-20T01:07:37;101654.00;;;6.46;80.18
57192;BME280;43052;52.588;13.396;2023-04-20T01:10:03;101647.66;;;6.36;79.91
57192;BME280;43052;52.588;13.396;2023-04-20T01:12:29;101652.81;;;6.35;80.08
57192;BME280;43052;52.588;13.396;2023-04-20T01:14:54;101647.72;;;6.38;80.28
57192;BME280;43052;52.588;13.396;2023-04-20T01:17:19;101650.34;;;6.39;80.11
57192;BME280;43052;52.588;13.396;2023-04-20T01:19:45;101640.66;;;6.34;80.28
57192;BME280;43052;52.588;13.396;2023-04-20T01:22:18;101654.50;;;6.33;80.54
57192;BME280;43052;52.588;13.396;2023-04-20T01:24:44;101644.94;;;6.32;80.36
57192;BME280;43052;52.588;13.396;2023-04-20T01:27:11;101642.44;;;6.35;80.29
57192;BME280;43052;52.588;13.396;2023-04-20T01:29:36;101648.72;;;6.43;80.35
57192;BME280;43052;52.588;13.396;2023-04-20T01:32:02;101641.69;;;6.39;80.22
57192;BME280;43052;52.588;13.396;2023-04-20T01:34:27;101642.47;;;6.36;80.50
57192;BME280;43052;52.588;13.396;2023-04-20T01:36:52;101633.09;;;6.41;80.56
57192;BME280;43052;52.588;13.396;2023-04-20T01:39:18;101639.00;;;6.36;80.27
57192;BME280;43052;52.588;13.396;2023-04-20T01:41:43;101637.94;;;6.29;80.28
57192;BME280;43052;52.588;13.396;2023-04-20T01:44:08;101637.16;;;6.32;80.91
57192;BME280;43052;52.588;13.396;2023-04-20T01:46:37;101631.91;;;6.29;80.66
57192;BME280;43052;52.588;13.396;2023-04-20T01:49:05;101635.44;;;6.32;81.04
57192;BME280;43052;52.588;13.396;2023-04-20T01:51:32;101627.72;;;6.35;80.99
57192;BME280;43052;52.588;13.396;2023-04-20T01:53:58;101621.69;;;6.36;80.76
57192;BME280;43052;52.588;13.396;2023-04-20T01:56:24;101638.28;;;6.41;80.95
57192;BME280;43052;52.588;13.396;2023-04-20T01:58:49;101634.78;;;6.41;80.92
57192;BME280;43052;52.588;13.396;2023-04-20T02:01:14;101633.09;;;6.41;80.65
57192;BME280;43052;52.588;13.396;2023-04-20T02:03:40;101622.56;;;6.37;80.88
57192;BME280;43052;52.588;13.396;2023-04-20T02:06:05;101628.69;;;6.39;81.14
57192;BME280;43052;52.588;13.396;2023-04-20T02:08:31;101630.44;;;6.40;80.99
57192;BME280;43052;52.588;13.396;2023-04-20T02:10:57;101630.50;;;6.41;81.16
57192;BME280;43052;52.588;13.396;2023-04-20T02:13:22;101629.53;;;6.38;81.04
57192;BME280;43052;52.588;13.396;2023-04-20T02:15:47;101624.34;;;6.38;81.46
57192;BME280;43052;52.588;13.396;2023-04-20T02:18:12;101632.28;;;6.44;81.39
57192;BME280;43052;52.588;13.396;2023-04-20T02:20:40;101627.22;;;6.50;81.45
57192;BME280;43052;52.588;13.396;2023-04-20T02:23:05;101627.16;;;6.47;81.12
57192;BME280;43052;52.588;13.396;2023-04-20T02:25:30;101637.72;;;6.53;81.35
57192;BME280;43052;52.588;13.396;2023-04-20T02:27:55;101638.63;;;6.55;81.08
57192;BME280;43052;52.588;13.396;2023-04-20T02:30:21;101643.84;;;6.55;81.31
57192;BME280;43052;52.588;13.396;2023-04-20T02:32:46;101633.44;;;6.55;81.08
57192;BME280;43052;52.588;13.396;2023-04-20T02:35:11;101635.94;;;6.52;81.30
57192;BME280;43052;52.588;13.396;2023-04-20T02:37:37;101634.31;;;6.56;81.21
57192;BME280;43052;52.588;13.396;2023-04-20T02:40:02;101632.59;;;6.56;81.30
57192;BME280;43052;52.588;13.396;2023-04-20T02:42:29;101635.31;;;6.61;81.10
57192;BME280;43052;52.588;13.396;2023-04-20T02:44:54;101630.16;;;6.63;81.08
57192;BME280;43052;52.588;13.396;2023-04-20T02:47:20;101629.31;;;6.64;81.21
57192;BME280;43052;52.588;13.396;2023-04-20T02:49:45;101614.66;;;6.67;81.25
57192;BME280;43052;52.588;13.396;2023-04-20T02:52:11;101623.41;;;6.71;81.10
57192;BME280;43052;52.588;13.396;2023-04-20T02:54:36;101620.03;;;6.75;81.22
57192;BME280;43052;52.588;13.396;2023-04-20T02:57:01;101627.69;;;6.69;81.09
57192;BME280;43052;52.588;13.396;2023-04-20T02:59:27;101633.81;;;6.71;81.19
57192;BME280;43052;52.588;13.396;2023-04-20T03:01:52;101629.34;;;6.65;81.14
57192;BME280;43052;52.588;13.396;2023-04-20T03:04:18;101625.09;;;6.69;81.28
57192;BME280;43052;52.588;13.396;2023-04-20T03:06:43;101625.91;;;6.66;81.08
57192;BME280;43052;52.588;13.396;2023-04-20T03:09:09;101630.31;;;6.70;81.13
57192;BME280;43052;52.588;13.396;2023-04-20T03:11:34;101625.06;;;6.67;81.22
57192;BME280;43052;52.588;13.396;2023-04-20T03:13:59;101633.66;;;6.65;80.88
57192;BME280;43052;52.588;13.396;2023-04-20T03:16:24;101642.19;;;6.59;81.10
57192;BME280;43052;52.588;13.396;2023-04-20T03:18:50;101642.13;;;6.57;81.15
57192;BME280;43052;52.588;13.396;2023-04-20T03:21:15;101639.25;;;6.47;81.40
57192;BME280;43052;52.588;13.396;2023-04-20T03:23:40;101631.38;;;6.43;81.40
57192;BME280;43052;52.588;13.396;2023-04-20T03:26:05;101637.44;;;6.42;81.85
57192;BME280;43052;52.588;13.396;2023-04-20T03:28:31;101630.66;;;6.49;81.74
57192;BME280;43052;52.588;13.396;2023-04-20T03:30:56;101637.81;;;6.58;81.42
57192;BME280;43052;52.588;13.396;2023-04-20T03:33:21;101637.63;;;6.50;81.37
57192;BME280;43052;52.588;13.396;2023-04-20T03:35:46;101648.03;;;6.50;81.60
57192;BME280;43052;52.588;13.396;2023-04-20T03:38:12;101646.25;;;6.49;81.49
57192;BME280;43052;52.588;13.396;2023-04-20T03:40:37;101649.69;;;6.48;81.58
57192;BME280;43052;52.588;13.396;2023-04-20T03:43:02;101651.44;;;6.49;81.26
57192;BME280;43052;52.588;13.396;2023-04-20T03:45:27;101646.97;;;6.43;81.63
57192;BME280;43052;52.588;13.396;2023-04-20T03:47:53;101638.44;;;6.48;81.53
57192;BME280;43052;52.588;13.396;2023-04-20T03:50:18;101645.38;;;6.47;81.55
57192;BME280;43052;52.588;13.396;2023-04-20T03:52:43;101645.38;;;6.49;81.66
57192;BME280;43052;52.588;13.396;2023-04-20T03:55:08;101648.00;;;6.49;81.58
57192;BME280;43052;52.588;13.396;2023-04-20T03:57:34;101650.34;;;6.39;81.63
57192;BME280;43052;52.588;13.396;2023-04-20T03:59:59;101653.63;;;6.32;81.55
57192;BME280;43052;52.588;13.396;2023-04-20T04:02:24;101654.47;;;6.31;81.88
57192;BME280;43052;52.588;13.396;2023-04-20T04:04:49;101652.72;;;6.32;82.13
57192;BME280;43052;52.588;13.396;2023-04-20T04:07:15;101649.25;;;6.30;81.95
57192;BME280;43052;52.588;13.396;2023-04-20T04:09:40;101657.22;;;6.37;82.10
57192;BME280;43052;52.588;13.396;2023-04-20T04:12:05;101655.75;;;6.47;82.00
57192;BME280;43052;52.588;13.396;2023-04-20T04:14:32;101646.09;;;6.43;81.68
57192;BME280;43052;52.588;13.396;2023-04-20T04:16:57;101654.78;;;6.43;81.66
57192;BME280;43052;52.588;13.396;2023-04-20T04:19:22;101662.50;;;6.40;81.78
57192;BME280;43052;52.588;13.396;2023-04-20T04:21:48;101658.81;;;6.32;81.84
57192;BME280;43052;52.588;13.396;2023-04-20T04:24:13;101662.25;;;6.31;82.00
57192;BME280;43052;52.588;13.396;2023-04-20T04:26:39;101664.88;;;6.33;82.08
57192;BME280;43052;52.588;13.396;2023-04-20T04:29:04;101666.78;;;6.38;82.05
57192;BME280;43052;52.588;13.396;2023-04-20T04:31:30;101667.03;;;6.49;82.19
57192;BME280;43052;52.588;13.396;2023-04-20T04:33:59;101656.66;;;6.49;81.53
57192;BME280;43052;52.588;13.396;2023-04-20T04:36:25;101653.16;;;6.47;81.93
57192;BME280;43052;52.588;13.396;2023-04-20T04:38:51;101659.47;;;6.58;81.73
57192;BME280;43052;52.588;13.396;2023-04-20T04:41:16;101662.16;;;6.62;81.77
57192;BME280;43052;52.588;13.396;2023-04-20T04:43:42;101656.88;;;6.58;81.72
57192;BME280;43052;52.588;13.396;2023-04-20T04:46:08;101676.28;;;6.71;81.69
57192;BME280;43052;52.588;13.396;2023-04-20T04:48:34;101662.28;;;6.66;81.52
57192;BME280;43052;52.588;13.396;2023-04-20T04:51:00;101657.97;;;6.67;81.44
57192;BME280;43052;52.588;13.396;2023-04-20T04:53:25;101672.69;;;6.66;81.59
57192;BME280;43052;52.588;13.396;2023-04-20T04:55:50;101690.06;;;6.69;81.65
57192;BME280;43052;52.588;13.396;2023-04-20T04:58:15;101676.38;;;6.76;81.55
57192;BME280;43052;52.588;13.396;2023-04-20T05:00:41;101680.84;;;6.82;81.52
57192;BME280;43052;52.588;13.396;2023-04-20T05:03:06;101673.25;;;6.89;81.02
57192;BME280;43052;52.588;13.396;2023-04-20T05:05:31;101677.66;;;6.92;80.79
57192;BME280;43052;52.588;13.396;2023-04-20T05:07:57;101676.00;;;6.96;80.99
57192;BME280;43052;52.588;13.396;2023-04-20T05:10:22;101687.47;;;7.04;80.84
57192;BME280;43052;52.588;13.396;2023-04-20T05:12:47;101665.78;;;7.03;80.87
57192;BME280;43052;52.588;13.396;2023-04-20T05:15:13;101680.78;;;7.14;80.79
57192;BME280;43052;52.588;13.396;2023-04-20T05:17:38;101675.50;;;7.12;80.23
57192;BME280;43052;52.588;13.396;2023-04-20T05:20:04;101671.94;;;7.07;80.03
57192;BME280;43052;52.588;13.396;2023-04-20T05:22:31;101671.84;;;7.04;80.05
57192;BME280;43052;52.588;13.396;2023-04-20T05:24:57;101677.78;;;6.98;80.34
57192;BME280;43052;52.588;13.396;2023-04-20T05:27:22;101681.31;;;7.00;80.27
57192;BME280;43052;52.588;13.396;2023-04-20T05:29:47;101695.38;;;7.09;79.93
57192;BME280;43052;52.588;13.396;2023-04-20T05:32:12;101690.16;;;7.07;80.02
57192;BME280;43052;52.588;13.396;2023-04-20T05:34:37;101686.81;;;7.13;79.95
57192;BME280;43052;52.588;13.396;2023-04-20T05:37:03;101689.75;;;7.27;79.92
57192;BME280;43052;52.588;13.396;2023-04-20T05:39:29;101682.81;;;7.29;79.29
57192;BME280;43052;52.588;13.396;2023-04-20T05:41:54;101680.28;;;7.30;79.50
57192;BME280;43052;52.588;13.396;2023-04-20T05:44:20;101695.06;;;7.33;79.04
57192;BME280;43052;52.588;13.396;2023-04-20T05:46:46;101696.00;;;7.35;79.00
57192;BME280;43052;52.588;13.396;2023-04-20T05:49:11;101695.16;;;7.36;78.99
57192;BME280;43052;52.588;13.396;2023-04-20T05:51:36;101699.56;;;7.40;79.05
57192;BME280;43052;52.588;13.396;2023-04-20T05:54:02;101726.50;;;7.42;78.40
57192;BME280;43052;52.588;13.396;2023-04-20T05:56:28;101725.56;;;7.39;78.26
57192;BME280;43052;52.588;13.396;2023-04-20T05:58:54;101708.09;;;7.34;78.34
57192;BME280;43052;52.588;13.396;2023-04-20T06:01:20;101708.22;;;7.39;78.55
57192;BME280;43052;52.588;13.396;2023-04-20T06:03:45;101713.63;;;7.48;78.07
57192;BME280;43052;52.588;13.396;2023-04-20T06:06:11;101716.53;;;7.61;78.16
57192;BME280;43052;52.588;13.396;2023-04-20T06:08:36;101710.66;;;7.71;77.90
57192;BME280;43052;52.588;13.396;2023-04-20T06:11:01;101695.94;;;7.73;77.96
57192;BME280;43052;52.588;13.396;2023-04-20T06:13:27;101706.53;;;7.82;77.03
57192;BME280;43052;52.588;13.396;2023-04-20T06:15:52;101710.09;;;7.86;77.33
57192;BME280;43052;52.588;13.396;2023-04-20T06:18:18;101712.06;;;7.98;76.93
57192;BME280;43052;52.588;13.396;2023-04-20T06:20:43;101719.22;;;8.08;76.76
57192;BME280;43052;52.588;13.396;2023-04-20T06:23:08;101722.81;;;8.13;75.98
57192;BME280;43052;52.588;13.396;2023-04-20T06:25:37;101718.16;;;7.98;75.32
57192;BME280;43052;52.588;13.396;2023-04-20T06:28:03;101724.97;;;7.92;75.14
57192;BME280;43052;52.588;13.396;2023-04-20T06:30:29;101743.09;;;7.87;75.31
57192;BME280;43052;52.588;13.396;2023-04-20T06:32:54;101731.56;;;7.76;75.69
57192;BME280;43052;52.588;13.396;2023-04-20T06:35:20;101733.63;;;7.91;76.09
57192;BME280;43052;52.588;13.396;2023-04-20T06:37:47;101734.63;;;7.96;75.89
57192;BME280;43052;52.588;13.396;2023-04-20T06:40:12;101738.91;;;7.92;75.50
57192;BME280;43052;52.588;13.396;2023-04-20T06:42:38;101738.00;;;7.92;74.94
57192;BME280;43052;52.588;13.396;2023-04-20T06:45:04;101731.88;;;7.90;75.13
57192;BME280;43052;52.588;13.396;2023-04-20T06:47:30;101731.00;;;7.89;75.43
57192;BME280;43052;52.588;13.396;2023-04-20T06:49:57;101738.94;;;7.95;75.52
57192;BME280;43052;52.588;13.396;2023-04-20T06:52:22;101742.47;;;7.97;75.38
57192;BME280;43052;52.588;13.396;2023-04-20T06:54:48;101725.34;;;8.09;75.92
57192;BME280;43052;52.588;13.396;2023-04-20T06:57:13;101727.50;;;8.33;75.40
57192;BME280;43052;52.588;13.396;2023-04-20T06:59:38;101727.13;;;8.56;74.70
57192;BME280;43052;52.588;13.396;2023-04-20T07:02:04;101729.09;;;8.69;73.31
57192;BME280;43052;52.588;13.396;2023-04-20T07:04:30;101733.50;;;8.72;72.60
57192;BME280;43052;52.588;13.396;2023-04-20T07:06:55;101739.16;;;8.98;72.51
57192;BME280;43052;52.588;13.396;2023-04-20T07:09:20;101721.59;;;9.45;71.32
57192;BME280;43052;52.588;13.396;2023-04-20T07:11:47;101727.75;;;10.16;70.24
57192;BME280;43052;52.588;13.396;2023-04-20T07:14:12;101713.81;;;11.06;66.04
57192;BME280;43052;52.588;13.396;2023-04-20T07:16:37;101708.88;;;11.50;65.49
57192;BME280;43052;52.588;13.396;2023-04-20T07:19:02;101711.66;;;11.88;63.69
57192;BME280;43052;52.588;13.396;2023-04-20T07:21:28;101709.03;;;11.81;64.45
57192;BME280;43052;52.588;13.396;2023-04-20T07:23:54;101729.06;;;11.71;64.79
57192;BME280;43052;52.588;13.396;2023-04-20T07:26:22;101733.50;;;11.80;65.17
57192;BME280;43052;52.588;13.396;2023-04-20T07:28:47;101731.69;;;11.68;62.40
57192;BME280;43052;52.588;13.396;2023-04-20T07:31:13;101735.81;;;11.32;63.56
57192;BME280;43052;52.588;13.396;2023-04-20T07:33:38;101737.34;;;11.02;64.20
57192;BME280;43052;52.588;13.396;2023-04-20T07:36:03;101744.84;;;10.64;64.26
57192;BME280;43052;52.588;13.396;2023-04-20T07:38:30;101746.34;;;10.39;64.54
57192;BME280;43052;52.588;13.396;2023-04-20T07:40:56;101749.88;;;10.46;64.25
57192;BME280;43052;52.588;13.396;2023-04-20T07:43:21;101756.03;;;10.49;63.44
57192;BME280;43052;52.588;13.396;2023-04-20T07:45:46;101747.41;;;10.58;63.58
57192;BME280;43052;52.588;13.396;2023-04-20T07:48:12;101747.44;;;10.61;64.16
57192;BME280;43052;52.588;13.396;2023-04-20T07:50:38;101758.81;;;10.66;63.86
57192;BME280;43052;52.588;13.396;2023-04-20T07:53:03;101760.59;;;10.68;63.65
57192;BME280;43052;52.588;13.396;2023-04-20T07:55:28;101752.72;;;10.68;63.99
57192;BME280;43052;52.588;13.396;2023-04-20T07:57:53;101762.34;;;10.69;64.14
57192;BME280;43052;52.588;13.396;2023-04-20T08:00:20;101771.72;;;10.48;64.48
57192;BME280;43052;52.588;13.396;2023-04-20T08:02:45;101765.38;;;10.32;64.73
57192;BME280;43052;52.588;13.396;2023-04-20T08:05:10;101771.28;;;10.14;64.67
57192;BME280;43052;52.588;13.396;2023-04-20T08:07:36;101757.97;;;9.95;65.15
57192;BME280;43052;52.588;13.396;2023-04-20T08:10:01;101772.75;;;9.92;65.33
57192;BME280;43052;52.588;13.396;2023-04-20T08:12:27;101779.66;;;9.86;65.88
57192;BME280;43052;52.588;13.396;2023-04-20T08:14:52;101784.88;;;9.88;65.91
57192;BME280;43052;52.588;13.396;2023-04-20T08:17:17;101778.03;;;9.98;65.47
57192;BME280;43052;52.588;13.396;2023-04-20T08:19:43;101768.69;;;10.15;65.42
57192;BME280;43052;52.588;13.396;2023-04-20T08:22:08;101768.28;;;10.52;65.18
57192;BME280;43052;52.588;13.396;2023-04-20T08:24:36;101765.09;;;10.84;63.61
57192;BME280;43052;52.588;13.396;2023-04-20T08:27:01;101765.31;;;11.07;63.96
57192;BME280;43052;52.588;13.396;2023-04-20T08:29:26;101759.41;;;11.33;63.00
57192;BME280;43052;52.588;13.396;2023-04-20T08:31:52;101766.56;;;11.65;62.83
57192;BME280;43052;52.588;13.396;2023-04-20T08:34:17;101766.63;;;11.71;61.95
57192;BME280;43052;52.588;13.396;2023-04-20T08:36:42;101763.94;;;11.59;62.00
57192;BME280;43052;52.588;13.396;2023-04-20T08:39:13;101772.34;;;11.13;61.83
57192;BME280;43052;52.588;13.396;2023-04-20T08:41:38;101778.91;;;10.68;63.00
57192;BME280;43052;52.588;13.396;2023-04-20T08:44:04;101781.22;;;10.41;64.06
57192;BME280;43052;52.588;13.396;2023-04-20T08:46:32;101786.97;;;10.12;65.11
57192;BME280;43052;52.588;13.396;2023-04-20T08:48:59;101790.84;;;9.78;65.99
57192;BME280;43052;52.588;13.396;2023-04-20T08:51:24;101775.81;;;9.61;66.76
57192;BME280;43052;52.588;13.396;2023-04-20T08:53:50;101789.84;;;9.69;66.70
57192;BME280;43052;52.588;13.396;2023-04-20T08:56:15;101790.63;;;9.62;67.45
57192;BME280;43052;52.588;13.396;2023-04-20T08:58:40;101793.94;;;9.50;67.62
57192;BME280;43052;52.588;13.396;2023-04-20T09:01:09;101791.94;;;9.34;68.03
57192;BME280;43052;52.588;13.396;2023-04-20T09:03:38;101783.59;;;9.04;69.13
57192;BME280;43052;52.588;13.396;2023-04-20T09:06:04;101792.84;;;8.87;69.76
57192;BME280;43052;52.588;13.396;2023-04-20T09:08:36;101797.91;;;8.77;70.44
57192;BME280;43052;52.588;13.396;2023-04-20T09:11:01;101800.44;;;8.73;71.10
57192;BME280;43052;52.588;13.396;2023-04-20T09:13:27;101794.25;;;8.66;71.64
57192;BME280;43052;52.588;13.396;2023-04-20T09:15:53;101787.91;;;8.53;71.75
57192;BME280;43052;52.588;13.396;2023-04-20T09:18:18;101794.09;;;8.58;71.64
57192;BME280;43052;52.588;13.396;2023-04-20T09:20:43;101795.75;;;8.55;72.33
57192;BME280;43052;52.588;13.396;2023-04-20T09:23:19;101787.91;;;8.53;72.46
57192;BME280;43052;52.588;13.396;2023-04-20T09:25:50;101793.44;;;8.70;72.73
57192;BME280;43052;52.588;13.396;2023-04-20T09:28:17;101784.09;;;8.82;72.70
57192;BME280;43052;52.588;13.396;2023-04-20T09:30:46;101778.28;;;9.00;72.80
57192;BME280;43052;52.588;13.396;2023-04-20T09:33:12;101775.13;;;9.18;72.35
57192;BME280;43052;52.588;13.396;2023-04-20T09:35:42;101772.75;;;9.32;72.04
57192;BME280;43052;52.588;13.396;2023-04-20T09:38:08;101767.78;;;9.49;72.27
57192;BME280;43052;52.588;13.396;2023-04-20T09:40:34;101771.56;;;9.69;71.61
57192;BME280;43052;52.588;13.396;2023-04-20T09:43:08;101768.16;;;9.75;71.30
57192;BME280;43052;52.588;13.396;2023-04-20T09:45:37;101764.22;;;10.07;71.07
57192;BME280;43052;52.588;13.396;2023-04-20T09:48:06;101767.09;;;10.28;69.91
57192;BME280;43052;52.588;13.396;2023-04-20T09:50:34;101776.94;;;10.49;69.63
57192;BME280;43052;52.588;13.396;2023-04-20T09:53:00;101770.16;;;10.65;69.50
57192;BME280;43052;52.588;13.396;2023-04-20T09:55:26;101771.31;;;10.97;68.25
57192;BME280;43052;52.588;13.396;2023-04-20T09:57:52;101764.66;;;11.39;67.65
57192;BME280;43052;52.588;13.396;2023-04-20T10:00:18;101769.34;;;11.91;64.90
57192;BME280;43052;52.588;13.396;2023-04-20T10:02:45;101758.19;;;12.25;64.22
57192;BME280;43052;52.588;13.396;2023-04-20T10:05:12;101762.66;;;12.87;63.56
57192;BME280;43052;52.588;13.396;2023-04-20T10:07:37;101762.66;;;13.21;61.39
57192;BME280;43052;52.588;13.396;2023-04-20T10:10:13;101744.28;;;13.52;60.98
57192;BME280;43052;52.588;13.396;2023-04-20T10:12:46;101739.69;;;14.13;60.08
57192;BME280;43052;52.588;13.396;2023-04-20T10:15:11;101737.56;;;14.77;57.93
57192;BME280;43052;52.588;13.396;2023-04-20T10:17:37;101730.53;;;14.82;57.53
57192;BME280;43052;52.588;13.396;2023-04-20T10:20:02;101731.88;;;15.29;57.16
57192;BME280;43052;52.588;13.396;2023-04-20T10:22:30;101741.13;;;15.67;55.40
57192;BME280;43052;52.588;13.396;2023-04-20T10:25:00;101723.50;;;15.71;55.39
57192;BME280;43052;52.588;13.396;2023-04-20T10:27:26;101731.59;;;16.87;53.66
57192;BME280;43052;52.588;13.396;2023-04-20T10:29:51;101717.13;;;19.50;45.99
57192;BME280;43052;52.588;13.396;2023-04-20T10:32:24;101710.09;;;20.10;43.31
57192;BME280;43052;52.588;13.396;2023-04-20T10:35:00;101709.75;;;20.78;42.87
57192;BME280;43052;52.588;13.396;2023-04-20T10:37:26;101704.75;;;20.12;42.14
57192;BME280;43052;52.588;13.396;2023-04-20T10:39:51;101705.16;;;19.00;44.65
57192;BME280;43052;52.588;13.396;2023-04-20T10:42:17;101711.28;;;18.68;45.42
57192;BME280;43052;52.588;13.396;2023-04-20T10:44:48;101706.75;;;18.35;46.05
57192;BME280;43052;52.588;13.396;2023-04-20T10:47:15;101712.06;;;17.93;45.96
57192;BME280;43052;52.588;13.396;2023-04-20T10:49:40;101722.47;;;17.08;46.17
57192;BME280;43052;52.588;13.396;2023-04-20T10:52:05;101718.88;;;16.57;48.04
57192;BME280;43052;52.588;13.396;2023-04-20T10:54:38;101722.06;;;16.78;49.07
57192;BME280;43052;52.588;13.396;2023-04-20T10:57:04;101726.50;;;16.76;48.12
57192;BME280;43052;52.588;13.396;2023-04-20T10:59:31;101714.59;;;16.50;48.95
57192;BME280;43052;52.588;13.396;2023-04-20T11:01:56;101715.69;;;16.35;49.76
57192;BME280;43052;52.588;13.396;2023-04-20T11:04:31;101705.81;;;16.48;49.11
57192;BME280;43052;52.588;13.396;2023-04-20T11:07:05;101703.91;;;16.56;49.55
57192;BME280;43052;52.588;13.396;2023-04-20T11:09:34;101694.03;;;16.69;49.51
57192;BME280;43052;52.588;13.396;2023-04-20T11:12:09;101692.50;;;17.09;49.38
57192;BME280;43052;52.588;13.396;2023-04-20T11:14:50;101686.38;;;17.07;48.72
57192;BME280;43052;52.588;13.396;2023-04-20T11:17:16;101696.41;;;16.86;49.23
57192;BME280;43052;52.588;13.396;2023-04-20T11:19:41;101691.44;;;16.68;49.55
57192;BME280;43052;52.588;13.396;2023-04-20T11:22:06;101687.97;;;16.64;50.05
57192;BME280;43052;52.588;13.396;2023-04-20T11:24:33;101680.91;;;16.65;50.29
57192;BME280;43052;52.588;13.396;2023-04-20T11:26:59;101676.72;;;16.51;50.33
57192;BME280;43052;52.588;13.396;2023-04-20T11:29:31;101687.63;;;16.26;51.19
57192;BME280;43052;52.588;13.396;2023-04-20T11:31:58;101693.84;;;16.25;51.13
57192;BME280;43052;52.588;13.396;2023-04-20T11:34:24;101687.72;;;16.22;51.29
57192;BME280;43052;52.588;13.396;2023-04-20T11:36:50;101693.94;;;16.18;51.49
57192;BME280;43052;52.588;13.396;2023-04-20T11:39:27;101691.75;;;15.84;51.83
57192;BME280;43052;52.588;13.396;2023-04-20T11:41:56;101689.44;;;15.52;52.32
57192;BME280;43052;52.588;13.396;2023-04-20T11:44:22;101680.75;;;15.44;53.21
57192;BME280;43052;52.588;13.396;2023-04-20T11:46:48;101678.84;;;15.57;53.30
57192;BME280;43052;52.588;13.396;2023-04-20T11:49:18;101673.69;;;15.49;53.04
57192;BME280;43052;52.588;13.396;2023-04-20T11:51:43;101684.47;;;15.26;53.52
57192;BME280;43052;52.588;13.396;2023-04-20T11:54:09;101684.69;;;15.03;54.32
57192;BME280;43052;52.588;13.396;2023-04-20T11:56:35;101682.09;;;14.98;54.65
57192;BME280;43052;52.588;13.396;2023-04-20T11:59:01;101682.91;;;15.03;54.38
57192;BME280;43052;52.588;13.396;2023-04-20T12:01:26;101680.38;;;14.96;54.63
57192;BME280;43052;52.588;13.396;2023-04-20T12:03:51;101674.28;;;14.86;55.43
57192;BME280;43052;52.588;13.396;2023-04-20T12:06:19;101672.50;;;14.91;55.03
57192;BME280;43052;52.588;13.396;2023-04-20T12:08:44;101666.31;;;14.95;54.81
57192;BME280;43052;52.588;13.396;2023-04-20T12:11:11;101655.72;;;15.03;54.71
57192;BME280;43052;52.588;13.396;2023-04-20T12:13:37;101652.38;;;14.85;54.65
57192;BME280;43052;52.588;13.396;2023-04-20T12:16:02;101661.22;;;14.77;54.89
57192;BME280;43052;52.588;13.396;2023-04-20T12:18:27;101657.75;;;14.75;55.29
57192;BME280;43052;52.588;13.396;2023-04-20T12:20:53;101661.22;;;14.78;55.95
57192;BME280;43052;52.588;13.396;2023-04-20T12:23:18;101651.59;;;14.72;55.99
57192;BME280;43052;52.588;13.396;2023-04-20T12:25:43;101653.50;;;14.53;56.10
57192;BME280;43052;52.588;13.396;2023-04-20T12:28:09;101664.13;;;14.36;56.36
57192;BME280;43052;52.588;13.396;2023-04-20T12:30:34;101647.53;;;14.31;56.13
57192;BME280;43052;52.588;13.396;2023-04-20T12:33:02;101654.31;;;14.58;55.91
57192;BME280;43052;52.588;13.396;2023-04-20T12:35:27;101654.06;;;14.93;54.97
57192;BME280;43052;52.588;13.396;2023-04-20T12:37:53;101645.06;;;15.15;53.69
57192;BME280;43052;52.588;13.396;2023-04-20T12:40:18;101651.31;;;15.05;53.13